ADDS METAR Data INFO
IDs: Format: Raw Decoded Include TAF

Data at: 2345 UTC 15 Dec 2017

KHEF 152256Z 00000KT 8SM CLR M05/M07 A2996 RMK AO2 SLP158 T10501067 FZRANO
KHEF 152156Z 00000KT 10SM SCT026 BKN034 OVC041 M02/M04 A2995 RMK AO2 UPB01E10 SLP153 P0000 T10221039 FZRANO
KHEF 152108Z 34004KT 10SM UP BKN026 OVC031 M02/M04 A2995 RMK AO2 UPB01 P0000 FZRANO
KHEF 152056Z 33004KT 10SM FEW026 OVC031 M02/M04 A2995 RMK AO2 UPB1957E09B43E56SNB09E43 SLP156 P0000 60000 T10221039 56007 FZRANO
KHEF 152043Z 00000KT 4SM UP BR OVC031 M02/M04 A2995 RMK AO2 UPB1957E09B43SNB09E43 P0000 FZRANO
KHEF 152021Z 00000KT 9SM -SN OVC029 M02/M05 A2995 RMK AO2 UPB1957E09SNB09 P0000 FZRANO
KHEF 151956Z 00000KT 10SM OVC031 M02/M04 A2995 RMK AO2 UPB10E25B43E46SNE10B25E43 SLP156 P0000 T10221044 FZRANO
KHEF 151856Z 35003KT 4SM -SN OVC033 M02/M05 A2995 RMK AO2 UPE32SNB32 SLP155 P0000 T10221050 FZRANO
KHEF 151756Z 36003KT 10SM UP OVC035 M02/M06 A2998 RMK AO2 SLP163 P0000 60000 T10171061 11011 21017 56036 FZRANO
KHEF 151656Z 00000KT 10SM UP OVC035 M01/M08 A3000 RMK AO2 UPB00E06B34SNB06E22 SLP172 P0000 T10111083 FZRANO
KHEF 151556Z 12003KT 10SM OVC035 M01/M09 A3005 RMK AO2 SLP189 T10111089 FZRANO
KHEF 151456Z 13004KT 10SM OVC037 M01/M09 A3008 RMK AO2 SLP199 T10111089 56006 FZRANO
KHEF 151356Z 10003KT 10SM FEW043 OVC055 M02/M09 A3008 RMK AO2 SLP199 T10171094 FZRANO
KHEF 151256Z 11005KT 10SM OVC050 M02/M09 A3009 RMK AO2 SLP201 T10171094 FZRANO
KHEF 151156Z 10003KT 10SM OVC050 M02/M09 A3010 RMK AO2 SLP205 T10171094 11017 21033 58007 FZRANO
KHEF 151056Z AUTO 00000KT 10SM OVC050 M03/M06 A3012 RMK AO2 SLP210 T10281056 FZRANO
KHEF 150956Z AUTO 00000KT 10SM OVC050 M03/M06 A3011 RMK AO2 SLP207 T10281056 FZRANO
KHEF 150856Z AUTO 00000KT 10SM OVC085 M03/M08 A3012 RMK AO2 SLP213 T10281078 50002 FZRANO
KHEF 150756Z AUTO 00000KT 10SM BKN080 M03/M08 A3013 RMK AO2 SLP215 T10331078 FZRANO
KHEF 150656Z AUTO 01003KT 10SM CLR M02/M09 A3012 RMK AO2 SLP213 T10221094 FZRANO
KHEF 150556Z AUTO 00000KT 10SM CLR M03/M09 A3011 RMK AO2 SLP210 T10331089 10006 21033 50004 FZRANO
KHEF 150456Z AUTO 36004KT 10SM CLR M03/M10 A3012 RMK AO2 SLP213 T10281100 FZRANO
KHEF 150356Z AUTO 35004KT 10SM CLR M02/M09 A3012 RMK AO2 SLP211 T10221094 400561044 FZRANO
KHEF 150256Z 01010KT 10SM CLR M01/M09 A3010 RMK AO2 SLP205 T10061089 51016 FZRANO
KHEF 150156Z 02007KT 10SM CLR M01/M08 A3009 RMK AO2 SLP200 T10061078 FZRANO
KHEF 150056Z 36006KT 10SM CLR 00/M08 A3008 RMK AO2 SLP196 T00001078 FZRANO
KHEF 142356Z 04003KT 10SM CLR 01/M08 A3005 RMK AO2 SLP190 T00111083 10056 20006 53034 FZRANO
KHEF 142256Z 36010KT 10SM CLR 01/M08 A3002 RMK AO2 SLP178 T00111078 FZRANO
KHEF 142156Z 36010KT 10SM CLR 02/M08 A2999 RMK AO2 SLP166 T00221078 FZRANO
KHEF 142056Z 01013KT 10SM CLR 04/M08 A2996 RMK AO2 SLP156 T00391083 53027
KHEF 141956Z 33009KT 10SM CLR 04/M08 A2993 RMK AO2 SLP146 T00441083
KHEF 141856Z 33010KT 10SM CLR 06/M09 A2989 RMK AO2 SLP134 T00561089
KHEF 141756Z 32016G24KT 10SM FEW060 05/M08 A2988 RMK AO2 SLP129 T00501083 10056 21022 50025
KHEF 141656Z 34014G20KT 9SM FEW049 BKN060 04/M07 A2989 RMK AO2 SLP133 T00391067
KHEF 141556Z 34015KT 10SM OVC050 04/M05 A2986 RMK AO2 PK WND 32028/1518 PRESRR SLP122 T00441050
KHEF 141456Z 32016KT 10SM OVC050 05/M06 A2980 RMK AO2 PK WND 30031/1410 PRESRR SLP105 T00501061 53048
KHEF 141356Z 31015G21KT 10SM FEW055 06/M05 A2973 RMK AO2 SLP078 T00561050
KHEF 141256Z 31003KT 8SM FEW070 M02/M07 A2967 RMK AO2 SLP058 T10171067 FZRANO
KHEF 141252Z 30003KT 2SM HZ FEW070 M02/M07 A2966 RMK AO2 FZRANO
KHEF 141156Z 25003KT 10SM BKN065 OVC080 01/M08 A2963 RMK AO2 SLP045 T00111078 10022 21044 53040 FZRANO